Agana Heights, GU

4:46 AM ChST on April 26, 2015 (GMT +1000)
Maite | | Change Station
CLOSE
Current Station
Personal Weather Station
Location: Maite, GU
Elevation: 140 ft
Nearby Weather Stations

Elev 140 ft 13.48 °N, 144.76 °E | Updated 6 seconds ago

Rain
Rain
78.7 °F
Feels Like 82 °F
N
0.0
Wind Variable Wind from SE
Gusts 7.0 mph

Today
High -- | Low -- °F
--% Chance of Precip.
Yesterday
High -- | Low -- °F
Precip. -- in
6:02 AM 6:35 PM
Waxing Crescent, 48% visible
Pressure 29.82 in
Visibility 10.0 miles
Clouds Scattered Clouds 1300 ft
Scattered Clouds 3200 ft
Mostly Cloudy 4700 ft
Heat Index 82 °F
Dew Point 76 °F
Humidity 93%
Rainfall 0.02 in
Snow Depth Not available.
UV 0.0 out of 12
Pollen Not available.
Air Quality Not available.
Flu Activity Regional
SPECI PGUM 251834Z 11005KT 10SM SCT013 SCT032 BKN047 26/26 A2982 RMK AO2 RAB05E17 P0000

More Conditions Fewer Conditions

Pressure 29.82 in
Visibility 10.0 miles
Clouds Scattered Clouds 1300 ft
Scattered Clouds 3200 ft
Mostly Cloudy 4700 ft
Heat Index 82 °F
Dew Point 76 °F
Humidity 93%
Rainfall 0.02 in
Snow Depth Not available.
UV 0.0 out of 12
Pollen Not available.
Air Quality Not available.
Flu Activity Regional
SPECI PGUM 251834Z 11005KT 10SM SCT013 SCT032 BKN047 26/26 A2982 RMK AO2 RAB05E17 P0000

More Conditions Fewer Conditions

10-Day Weather Forecast

Almanac

Astronomy

Apr. 26, 2015 Rise Set
Actual Time
Civil Twilight
Nautical Twilight
Astronomical Twilight
Moon
Length of Visible Light
Length of Day
Tomorrow will be .
, % of the Moon is Illuminated

Today's Extremes

State Highs State Lows

Community

WunderPhotos

Upload Photos

1,816,767 photos uploaded!

WunderBlogs® & News

Nearby

Air Quality

  Air Quality AQ Index Pollutant
Not available.

Snow Depth

Station Depth Elevation

Earthquake Activity

City Distance Mag. Time & Date
Minimum magnitude displayed is 2.5.

Coastal Water Temperatures

Place Temperature

Stations

Nearby Weather Stations

Station Location Temp. Windchill Dew Point Humidity Wind Precip. Elev Updated Type